Latest METARs, TAFs and NOTAMs for CYFB


---------------------------------------------------------------------------
	(OBSERVATIONS)
CYFB 190900Z 00000KT 30SM SKC M19/M22 A3031 RMK SLP270=
CYFB 190800Z 34013G18KT 15SM SKC M18/M22 A3031 RMK SLP269=
CYFB 190700Z 35013KT 15SM SKC M18/M22 A3030 RMK SLP266=
---------------------------------------------------------------------------
	(FC)
Sorry, FC For CYFB Not Found
---------------------------------------------------------------------------
	(TERMINAL AREA FORECAST)
AMD CYFB 190903Z 1909/2006 VRB03KT P6SM SKC TEMPO 1909/1917
    34010G20KT
    FM191700 32015G25KT P6SM SKC
    BECMG 2000/2002 32015KT
    RMK NXT FCST BY 191200Z=
---------------------------------------------------------------------------
	(NOTAMS)


CYFB 04/018 CYFB ILS GP 34 U/S. 18 APR 17:50 2018 UNTIL 19 APR
    23:59 2018. CREATED: 18 APR 17:51 2018

CYFB 04/019 CYFB UNMANNED AIR VEHICLE ACT RADIUS 0.5 NM CENTRE
    634431N 682840W (APRX 2 NM SE AD) SFC TO 300 FT AGL. WINGSPAN
    24 INS. WEIGHT 9 LB. COLOUR GREY WITH BLACK TRIM. 19 APR
    21:00 2018 UNTIL 19 APR 23:00 2018. CREATED: 18 APR 18:36
    2018

CYFB B1718/18 ILS GP 34 U/S. 18 APR 17:50 2018 UNTIL 19 APR 23:59
    2018. CREATED: 18 APR 17:51 2018

---------------------------------------------------------------------------